Airfield :
LOGIN :

Register | Disclaimer

   EN    FR    IT 

 










Legend :    VFR   Marginal VFR   IFR   Intensive IFR   Very Intensive IFR
Visi :
Ceiling :
>= 8 km
>= 3000ft
5 to 8 km
1000 to 3000 ft
1500m to 5 km
500 to 1000 ft
800 to 1500m
200 to 500 ft
< 800m
< 200 ft
Symbols :   Thunderstorms  Fog  Heavy snow  Heavy precipitations  Wind > 20 kt
SIGMETs :     Misc.  Thunderstorms  Icing  Turbulence  Mountain Waves  Volcanic Ashes







- Airport Elevation : 28 ft
- IATA code : SOZ
- Download approach charts


LFKS - Solenzara

CURRENT METAR :
  • 232200Z AUTO 24003KT 180V280 9999 FEW072 SCT120 14/11 Q1008

EXPIRED METARs :
  • 232130Z AUTO 23003KT 180V300 9999 FEW066 15/11 Q1008
  • 232100Z AUTO 24003KT 190V270 9999 FEW070 15/12 Q1008
  • 232030Z AUTO 15010KT CAVOK 16/12 Q1007
  • 232000Z AUTO 15009KT CAVOK 16/12 Q1007
  • 231930Z AUTO 18008KT 140V230 CAVOK 17/12 Q1006

TAF TAF LFKS
Valid from the 23 at 15:00 until the 24 at 15:00 UTC


231400Z 2315/2415 17015G25KT 9999 FEW010 SCT030 BKN050
TEMPO 2315/2316 BKN025 FEW030CB
BECMG 2316/2317 17010KT FEW030
No reported NOTAMs for that airfield.
1 SIGMET reported for the Marseille FIR (LFMM) :
 
Severe turbulence
LFMM SIGMET 2 VALID 232100/232300 LFPW
LFMM MARSEILLE FIR/UIR SEV TURB FCST WI N4330 E00245 - N4545 E00300 - N4545 E00500 - N4500 E00500 - N4330 E00245 SFC/FL070 STNR INTSF=



MET'MAP, your aeronautical weather chart ! - Copyright ORBIFLY December 2007 - Disclaimer

ORBIFLY MET'MAP TEAM :

Programming & Development : Alexandra Zaïnal
Concept & Development : Baudouin d'Aumeries
Co-Development & Prog : Marc-Olivier Méhu
Technical & hardware support : Manuel Goepfert

Contact : metmap@orbifly.com




SOURCES & CREDITS :

   NOAA